createdAt,value
2023-11-11T00:01:49.200Z,13.42
2023-11-11T00:04:16.260Z,13.43
2023-11-11T00:06:43.500Z,13.43
2023-11-11T00:09:14.502Z,13.43
2023-11-11T00:11:41.691Z,13.44
2023-11-11T00:14:11.216Z,13.43
2023-11-11T00:16:38.488Z,13.43
2023-11-11T00:19:05.402Z,13.46
2023-11-11T00:21:32.485Z,13.46
2023-11-11T00:23:59.387Z,13.45
2023-11-11T00:26:26.636Z,13.43
2023-11-11T00:28:53.689Z,13.44
2023-11-11T00:31:20.553Z,13.45
2023-11-11T00:33:47.517Z,13.45
2023-11-11T00:36:16.982Z,13.45
2023-11-11T00:38:43.848Z,13.42
2023-11-11T00:41:10.667Z,13.38
2023-11-11T00:43:37.713Z,13.39
2023-11-11T00:46:04.888Z,13.38
2023-11-11T00:48:32.044Z,13.36
2023-11-11T00:51:01.719Z,13.30
2023-11-11T00:53:28.621Z,13.28
2023-11-11T00:55:55.960Z,13.27
2023-11-11T00:58:22.968Z,13.25
2023-11-11T01:00:49.808Z,13.20
2023-11-11T01:03:16.784Z,13.17
2023-11-11T01:05:43.905Z,13.17
2023-11-11T01:08:11.057Z,13.16
2023-11-11T01:10:38.742Z,13.16
2023-11-11T01:13:06.897Z,13.16
2023-11-11T01:15:34.959Z,13.20
2023-11-11T01:18:02.032Z,13.26
2023-11-11T01:20:29.057Z,13.28
2023-11-11T01:22:56.719Z,13.30
2023-11-11T01:25:23.671Z,13.32
2023-11-11T01:27:50.715Z,13.35
2023-11-11T01:30:20.222Z,13.38
2023-11-11T01:32:47.292Z,13.41
2023-11-11T01:35:14.314Z,13.42
2023-11-11T01:37:41.269Z,13.47
2023-11-11T01:40:08.724Z,13.53
2023-11-11T01:42:35.808Z,13.59
2023-11-11T01:45:03.121Z,13.64
2023-11-11T01:47:30.502Z,13.65
2023-11-11T01:49:58.378Z,13.71
2023-11-11T01:52:26.007Z,13.76
2023-11-11T01:54:53.239Z,13.79
2023-11-11T01:57:21.120Z,13.84
2023-11-11T01:59:48.379Z,13.86
2023-11-11T02:02:16.284Z,13.91
2023-11-11T02:04:43.472Z,13.98
2023-11-11T02:07:10.539Z,14.05
2023-11-11T02:09:38.422Z,14.11
2023-11-11T02:12:06.162Z,14.15
2023-11-11T02:14:38.023Z,14.17
2023-11-11T02:17:05.902Z,14.18
2023-11-11T02:19:32.841Z,14.20
2023-11-11T02:21:59.577Z,14.22
2023-11-11T02:24:27.919Z,14.26
2023-11-11T02:26:55.217Z,14.28
2023-11-11T02:29:22.257Z,14.29
2023-11-11T02:31:49.106Z,14.30
2023-11-11T02:34:16.868Z,14.30
2023-11-11T02:36:53.920Z,14.31
2023-11-11T02:39:27.779Z,14.32
2023-11-11T02:41:54.704Z,14.33
2023-11-11T02:44:21.546Z,14.34
2023-11-11T02:46:48.813Z,14.36
2023-11-11T02:49:16.094Z,14.41
2023-11-11T02:51:43.034Z,14.46
2023-11-11T02:54:09.988Z,14.48
2023-11-11T02:56:37.198Z,14.48
2023-11-11T02:59:04.137Z,14.50
2023-11-11T03:01:41.878Z,14.55
2023-11-11T03:04:09.276Z,14.56
2023-11-11T03:06:42.730Z,14.55
2023-11-11T03:09:13.357Z,14.54
2023-11-11T03:11:40.891Z,14.56
2023-11-11T03:14:07.945Z,14.55
2023-11-11T03:16:39.596Z,14.52
2023-11-11T03:19:07.582Z,14.51
2023-11-11T03:21:35.066Z,14.52
2023-11-11T03:24:02.979Z,14.49
2023-11-11T03:26:30.038Z,14.43
2023-11-11T03:28:57.080Z,14.40
2023-11-11T03:31:24.157Z,14.41
2023-11-11T03:33:51.421Z,14.41
2023-11-11T03:36:18.433Z,14.38
2023-11-11T03:38:45.383Z,14.35
2023-11-11T03:41:12.234Z,14.33
2023-11-11T03:43:39.693Z,14.32
2023-11-11T03:46:06.800Z,14.29
2023-11-11T03:48:33.793Z,14.23
2023-11-11T03:51:00.844Z,14.15
2023-11-11T03:53:27.860Z,14.13
2023-11-11T03:55:54.918Z,14.10
2023-11-11T03:58:23.593Z,14.06
2023-11-11T04:00:51.098Z,14.01
2023-11-11T04:03:18.506Z,13.97
2023-11-11T04:05:47.056Z,13.96
2023-11-11T04:08:15.053Z,13.94
2023-11-11T04:10:41.900Z,13.93
2023-11-11T04:13:10.079Z,13.90
2023-11-11T04:15:37.601Z,13.90
2023-11-11T04:18:04.638Z,13.89
2023-11-11T04:20:31.954Z,13.86
2023-11-11T04:22:59.920Z,13.86
2023-11-11T04:25:26.855Z,13.87
2023-11-11T04:27:54.326Z,13.86
2023-11-11T04:30:21.535Z,13.83
2023-11-11T04:32:48.568Z,13.83
2023-11-11T04:35:15.453Z,13.85
2023-11-11T04:37:42.506Z,13.87
2023-11-11T04:40:11.289Z,13.89
2023-11-11T04:42:39.493Z,13.90
2023-11-11T04:45:07.432Z,13.91
2023-11-11T04:47:34.289Z,13.96
2023-11-11T04:50:02.145Z,14.01
2023-11-11T04:52:31.861Z,14.06
2023-11-11T04:54:58.800Z,14.10
2023-11-11T04:57:25.892Z,14.16
2023-11-11T04:59:52.901Z,14.24
2023-11-11T05:02:19.835Z,14.30
2023-11-11T05:04:46.994Z,14.34
2023-11-11T05:07:14.031Z,14.36
2023-11-11T05:09:41.205Z,14.38
2023-11-11T05:12:09.458Z,14.39
2023-11-11T05:14:37.118Z,14.38
2023-11-11T05:17:08.341Z,14.37
2023-11-11T05:19:35.512Z,14.41
2023-11-11T05:22:06.775Z,14.45
2023-11-11T05:24:33.724Z,14.46
2023-11-11T05:27:00.861Z,14.47
2023-11-11T05:29:27.814Z,14.52
2023-11-11T05:31:54.760Z,14.58
2023-11-11T05:34:21.799Z,14.60
2023-11-11T05:36:50.925Z,14.61
2023-11-11T05:39:17.751Z,14.62
2023-11-11T05:41:44.695Z,14.64
2023-11-11T05:44:11.624Z,14.63
2023-11-11T05:46:40.376Z,14.60
2023-11-11T05:49:07.695Z,14.61
2023-11-11T05:51:34.735Z,14.69
2023-11-11T05:54:02.683Z,14.78
2023-11-11T05:56:29.833Z,14.87
2023-11-11T05:58:59.649Z,14.99
2023-11-11T06:01:27.208Z,15.19
2023-11-11T06:03:54.194Z,15.30
2023-11-11T06:06:21.166Z,15.36
2023-11-11T06:08:48.662Z,15.32
2023-11-11T06:11:16.732Z,15.28
2023-11-11T06:13:43.675Z,15.27
2023-11-11T06:16:10.595Z,15.24
2023-11-11T06:18:37.586Z,15.22
2023-11-11T06:21:08.748Z,15.32
2023-11-11T06:26:08.486Z,15.53
2023-11-11T06:28:35.407Z,15.70
2023-11-11T06:31:02.631Z,16.16
2023-11-11T06:33:29.967Z,16.35
2023-11-11T06:35:59.336Z,16.35
2023-11-11T06:38:26.358Z,16.25
2023-11-11T06:40:53.207Z,16.03
2023-11-11T06:43:20.154Z,15.86
2023-11-11T06:45:48.141Z,15.77
2023-11-11T06:48:17.003Z,15.76
2023-11-11T06:50:43.936Z,15.76
2023-11-11T06:53:12.614Z,16.11
2023-11-11T06:55:39.577Z,16.82
2023-11-11T06:58:07.980Z,17.52
2023-11-11T07:00:35.220Z,18.11
2023-11-11T07:03:03.684Z,18.67
2023-11-11T07:05:30.751Z,19.03
2023-11-11T07:07:57.678Z,19.59
2023-11-11T07:10:24.612Z,20.07
2023-11-11T07:12:52.342Z,20.25
2023-11-11T07:15:22.027Z,20.58
2023-11-11T07:17:49.222Z,20.89
2023-11-11T07:20:19.761Z,20.98
2023-11-11T07:22:46.713Z,20.99
2023-11-11T07:25:13.756Z,21.14
2023-11-11T07:27:40.650Z,21.38
2023-11-11T07:30:10.948Z,21.42
2023-11-11T07:32:44.535Z,21.53
2023-11-11T07:35:17.721Z,21.72
2023-11-11T07:37:47.329Z,21.83
2023-11-11T07:40:17.355Z,21.86
2023-11-11T07:42:44.338Z,22.06
2023-11-11T07:45:12.165Z,22.16
2023-11-11T07:47:42.247Z,22.40
2023-11-11T07:50:10.357Z,22.54
2023-11-11T07:52:37.101Z,22.63
2023-11-11T07:55:05.914Z,22.75
2023-11-11T08:00:07.129Z,22.89
2023-11-11T08:02:36.604Z,23.13
2023-11-11T08:05:04.449Z,23.31
2023-11-11T08:07:31.462Z,23.50
2023-11-11T08:09:58.398Z,23.60
2023-11-11T08:12:25.361Z,23.55
2023-11-11T08:14:53.105Z,23.70
2023-11-11T08:17:20.219Z,23.85
2023-11-11T08:19:47.732Z,23.93
2023-11-11T08:22:14.679Z,23.96
2023-11-11T08:24:41.750Z,23.99
2023-11-11T08:27:09.782Z,24.14
2023-11-11T08:29:37.130Z,24.41
2023-11-11T08:32:04.794Z,24.61
2023-11-11T08:34:31.843Z,24.65
2023-11-11T08:36:58.934Z,24.78
2023-11-11T08:39:25.972Z,24.66
2023-11-11T08:41:52.985Z,24.67
2023-11-11T08:44:20.673Z,24.69
2023-11-11T08:46:48.064Z,24.76
2023-11-11T08:49:15.308Z,24.58
2023-11-11T08:51:42.319Z,24.25
2023-11-11T08:54:09.545Z,23.83
2023-11-11T08:56:36.488Z,23.80
2023-11-11T08:59:04.811Z,23.81
2023-11-11T09:01:33.711Z,23.69
2023-11-11T09:04:01.149Z,23.55
2023-11-11T09:06:28.706Z,23.60
2023-11-11T09:08:57.466Z,23.38
2023-11-11T09:11:25.942Z,23.70
2023-11-11T09:13:53.306Z,24.08
2023-11-11T09:16:20.291Z,24.57
2023-11-11T09:18:48.039Z,24.69
2023-11-11T09:21:15.674Z,24.46
2023-11-11T09:23:42.946Z,24.05
2023-11-11T09:26:09.972Z,23.55
2023-11-11T09:28:37.834Z,23.03
2023-11-11T09:31:05.054Z,22.53
2023-11-11T09:33:32.205Z,22.03
2023-11-11T09:35:58.912Z,21.50
2023-11-11T09:38:26.040Z,21.04
2023-11-11T09:41:11.041Z,20.55
2023-11-11T09:43:38.040Z,20.21
2023-11-11T09:46:09.750Z,20.04
2023-11-11T09:48:36.953Z,20.01
2023-11-11T09:51:07.442Z,19.93
2023-11-11T09:53:36.208Z,19.82
2023-11-11T09:56:05.696Z,19.67
2023-11-11T09:58:34.689Z,19.58
2023-11-11T10:01:01.482Z,19.50
2023-11-11T10:03:29.865Z,19.46
2023-11-11T10:05:58.267Z,19.37
2023-11-11T10:08:25.721Z,19.29
2023-11-11T10:10:53.405Z,19.25
2023-11-11T10:13:21.899Z,19.26
2023-11-11T10:15:49.162Z,19.28
2023-11-11T10:18:16.882Z,19.33
2023-11-11T10:20:47.699Z,19.36
2023-11-11T10:23:16.510Z,19.39
2023-11-11T10:25:43.996Z,19.24
2023-11-11T10:28:16.784Z,19.06
2023-11-11T10:30:44.002Z,18.90
2023-11-11T10:33:12.550Z,18.82
2023-11-11T10:35:40.668Z,18.78
2023-11-11T10:38:08.553Z,18.66
2023-11-11T10:40:35.634Z,18.49
2023-11-11T10:43:05.066Z,18.34
2023-11-11T10:45:33.755Z,18.15
2023-11-11T10:48:01.941Z,18.00
2023-11-11T10:50:31.238Z,18.03
2023-11-11T10:52:58.856Z,18.08
2023-11-11T10:55:27.573Z,18.06
2023-11-11T10:57:57.198Z,18.07
2023-11-11T11:00:25.259Z,18.12
2023-11-11T11:02:54.753Z,18.21
2023-11-11T11:05:59.602Z,18.24
2023-11-11T11:08:35.765Z,18.28
2023-11-11T11:11:29.028Z,18.31
2023-11-11T11:14:08.612Z,18.37
2023-11-11T11:16:39.110Z,18.39
2023-11-11T11:19:08.548Z,18.41
2023-11-11T11:21:35.954Z,18.44
2023-11-11T11:24:10.169Z,18.44
2023-11-11T11:26:37.421Z,18.35
2023-11-11T11:29:14.445Z,18.24
2023-11-11T11:32:04.129Z,18.17
2023-11-11T11:34:31.258Z,18.11
2023-11-11T11:36:58.274Z,18.09
2023-11-11T11:39:51.335Z,18.06
2023-11-11T11:42:20.982Z,18.05
2023-11-11T11:44:58.758Z,18.03
2023-11-11T11:47:33.480Z,18.01
2023-11-11T11:50:01.672Z,17.97
2023-11-11T11:52:28.830Z,17.96
2023-11-11T11:54:56.566Z,17.94
2023-11-11T11:57:28.318Z,17.95
2023-11-11T12:00:14.444Z,17.93
2023-11-11T12:02:41.916Z,17.90
2023-11-11T12:05:09.819Z,17.83
2023-11-11T12:07:38.857Z,17.78
2023-11-11T12:10:07.820Z,17.77
2023-11-11T12:12:35.029Z,17.74
2023-11-11T12:15:12.796Z,17.74
2023-11-11T12:17:43.243Z,17.75
2023-11-11T12:20:15.065Z,17.75
2023-11-11T12:22:43.797Z,17.68
2023-11-11T12:25:11.506Z,17.45
2023-11-11T12:27:38.570Z,17.14
2023-11-11T12:30:22.535Z,16.88
2023-11-11T12:33:11.683Z,16.65
2023-11-11T12:35:41.729Z,16.44
2023-11-11T12:38:24.538Z,16.27
2023-11-11T12:40:56.189Z,16.16
2023-11-11T12:43:25.172Z,16.06
2023-11-11T12:45:55.732Z,15.97
2023-11-11T12:48:29.696Z,15.81
2023-11-11T12:50:57.874Z,15.60
2023-11-11T12:53:24.735Z,15.40
2023-11-11T12:56:12.454Z,15.20
2023-11-11T12:58:39.239Z,15.00
2023-11-11T13:01:06.930Z,14.82
2023-11-11T13:03:34.694Z,14.66
2023-11-11T13:06:06.425Z,14.53
2023-11-11T13:08:35.362Z,14.43
2023-11-11T13:11:03.229Z,14.35
2023-11-11T13:13:30.824Z,14.28
2023-11-11T13:16:00.828Z,14.24
2023-11-11T13:18:27.958Z,14.18
2023-11-11T13:20:59.549Z,14.16
2023-11-11T13:23:30.238Z,14.12
2023-11-11T13:25:57.702Z,14.09
2023-11-11T13:28:25.040Z,14.07
2023-11-11T13:30:54.455Z,14.04
2023-11-11T13:33:21.678Z,14.02
2023-11-11T13:35:51.518Z,13.99
2023-11-11T13:38:21.174Z,13.96
2023-11-11T13:40:49.486Z,13.92
2023-11-11T13:43:17.789Z,13.88
2023-11-11T13:45:47.478Z,13.85
2023-11-11T13:48:15.022Z,13.82
2023-11-11T13:50:41.925Z,13.83
2023-11-11T13:53:09.871Z,13.83
2023-11-11T13:55:37.139Z,13.80
2023-11-11T13:58:04.173Z,13.77
2023-11-11T14:00:31.936Z,13.77
2023-11-11T14:03:02.772Z,13.76
2023-11-11T14:05:30.154Z,13.73
2023-11-11T14:07:57.068Z,13.78
2023-11-11T14:10:28.367Z,13.80
2023-11-11T14:12:56.532Z,13.82
2023-11-11T14:15:30.937Z,13.95
2023-11-11T14:17:58.330Z,14.25
2023-11-11T14:20:29.510Z,14.49
2023-11-11T14:23:01.253Z,14.58
2023-11-11T14:25:28.871Z,14.65
2023-11-11T14:27:56.604Z,14.72
2023-11-11T14:30:26.597Z,14.74
2023-11-11T14:32:56.833Z,14.71
2023-11-11T14:35:24.146Z,14.61
2023-11-11T14:37:55.689Z,14.52
2023-11-11T14:40:23.651Z,14.40
2023-11-11T14:42:55.429Z,14.26
2023-11-11T14:45:23.565Z,14.15
2023-11-11T14:47:51.446Z,14.03
2023-11-11T14:50:20.878Z,13.94
2023-11-11T14:52:51.601Z,13.87
2023-11-11T14:55:18.834Z,13.80
2023-11-11T14:57:47.808Z,13.74
2023-11-11T15:00:27.741Z,13.67
2023-11-11T15:02:56.319Z,13.61
2023-11-11T15:05:23.929Z,13.53
2023-11-11T15:07:51.913Z,13.46
2023-11-11T15:10:20.430Z,13.43
2023-11-11T15:12:51.682Z,13.36
2023-11-11T15:15:19.770Z,13.30
2023-11-11T15:17:47.282Z,13.27
2023-11-11T15:20:16.303Z,13.25
2023-11-11T15:22:46.553Z,13.24
2023-11-11T15:25:15.913Z,13.23
2023-11-11T15:27:43.696Z,13.22
2023-11-11T15:30:15.769Z,13.19
2023-11-11T15:32:42.939Z,13.16
2023-11-11T15:35:10.680Z,13.13
2023-11-11T15:37:38.266Z,13.08
2023-11-11T15:40:08.994Z,13.05
2023-11-11T15:42:36.844Z,13.05
2023-11-11T15:45:07.908Z,13.02
2023-11-11T15:47:35.157Z,12.97
2023-11-11T15:50:04.665Z,12.92
2023-11-11T15:52:31.960Z,12.88
2023-11-11T15:54:58.937Z,12.84
2023-11-11T15:57:25.996Z,12.80
2023-11-11T15:59:52.697Z,12.78
2023-11-11T16:02:19.732Z,12.78
2023-11-11T16:04:47.558Z,12.77
2023-11-11T16:07:14.893Z,12.78
2023-11-11T16:09:41.835Z,12.78
2023-11-11T16:12:12.270Z,12.78
2023-11-11T16:14:40.234Z,12.76
2023-11-11T16:17:07.641Z,12.75
2023-11-11T16:19:35.506Z,12.74
2023-11-11T16:22:04.146Z,12.74
2023-11-11T16:24:31.088Z,12.73
2023-11-11T16:26:57.929Z,12.73
2023-11-11T16:29:24.983Z,12.73
2023-11-11T16:31:52.211Z,12.71
2023-11-11T16:34:21.453Z,12.71
2023-11-11T16:36:48.498Z,12.70
2023-11-11T16:39:19.313Z,12.66
2023-11-11T16:41:49.815Z,12.61
2023-11-11T16:44:17.638Z,12.57
2023-11-11T16:46:44.463Z,12.52
2023-11-11T16:49:11.400Z,12.48
2023-11-11T16:51:38.240Z,12.45
2023-11-11T16:54:05.811Z,12.43
2023-11-11T16:56:32.851Z,12.40
2023-11-11T16:58:59.706Z,12.36
2023-11-11T17:01:26.851Z,12.32
2023-11-11T17:03:57.441Z,12.28
2023-11-11T17:06:24.861Z,12.25
2023-11-11T17:08:51.935Z,12.21
2023-11-11T17:11:18.818Z,12.19
2023-11-11T17:13:46.195Z,12.16
2023-11-11T17:16:13.123Z,12.11
2023-11-11T17:18:40.387Z,12.04
2023-11-11T17:21:07.839Z,11.98
2023-11-11T17:23:34.769Z,11.94
2023-11-11T17:26:01.607Z,11.90
2023-11-11T17:28:31.908Z,11.85
2023-11-11T17:30:59.073Z,11.82
2023-11-11T17:33:35.738Z,11.78
2023-11-11T17:36:09.050Z,11.76
2023-11-11T17:38:39.239Z,11.73
2023-11-11T17:41:12.604Z,11.71
2023-11-11T17:43:39.964Z,11.69
2023-11-11T17:46:07.419Z,11.67
2023-11-11T17:48:35.994Z,11.66
2023-11-11T17:51:05.347Z,11.70
2023-11-11T17:53:32.237Z,11.75
2023-11-11T17:56:00.710Z,11.82
2023-11-11T17:58:28.256Z,11.88
2023-11-11T18:00:55.401Z,11.95
2023-11-11T18:03:22.331Z,11.99
2023-11-11T18:05:51.142Z,12.00
2023-11-11T18:08:18.096Z,11.99
2023-11-11T18:10:44.929Z,11.94
2023-11-11T18:13:13.306Z,11.90
2023-11-11T18:15:40.148Z,11.90
2023-11-11T18:18:07.679Z,11.86
2023-11-11T18:20:34.671Z,11.82
2023-11-11T18:23:01.730Z,11.76
2023-11-11T18:25:28.765Z,11.69
2023-11-11T18:27:55.721Z,11.61
2023-11-11T18:30:23.667Z,11.56
2023-11-11T18:32:50.704Z,11.59
2023-11-11T18:35:17.880Z,11.63
2023-11-11T18:37:44.948Z,11.67
2023-11-11T18:40:12.567Z,11.72
2023-11-11T18:42:39.420Z,11.77
2023-11-11T18:45:09.743Z,11.81
2023-11-11T18:47:36.687Z,11.83
2023-11-11T18:50:16.172Z,11.85
2023-11-11T18:52:50.214Z,11.87
2023-11-11T18:55:17.175Z,11.87
2023-11-11T18:57:43.932Z,11.87
2023-11-11T19:00:12.444Z,11.85
2023-11-11T19:02:39.449Z,11.87
2023-11-11T19:05:10.216Z,11.89
2023-11-11T19:07:37.871Z,11.92
2023-11-11T19:10:08.361Z,11.95
2023-11-11T19:12:36.042Z,11.98
2023-11-11T19:15:04.519Z,12.00
2023-11-11T19:17:31.977Z,12.00
2023-11-11T19:19:59.770Z,12.05
2023-11-11T19:22:29.119Z,12.07
2023-11-11T19:24:58.268Z,12.08
2023-11-11T19:27:25.179Z,12.08
2023-11-11T19:29:52.403Z,12.04
2023-11-11T19:32:20.789Z,11.98
2023-11-11T19:34:48.140Z,11.92
2023-11-11T19:37:15.265Z,11.89
2023-11-11T19:39:42.366Z,11.81
2023-11-11T19:42:09.777Z,11.74
2023-11-11T19:44:36.893Z,11.67
2023-11-11T19:47:04.347Z,11.60
2023-11-11T19:49:31.271Z,11.53
2023-11-11T19:51:58.436Z,11.45
2023-11-11T19:54:25.516Z,11.44
2023-11-11T19:56:52.827Z,11.44
2023-11-11T19:59:19.693Z,11.43
2023-11-11T20:01:46.768Z,11.41
2023-11-11T20:04:13.980Z,11.39
2023-11-11T20:06:41.023Z,11.34
2023-11-11T20:09:08.883Z,11.31
2023-11-11T20:11:35.936Z,11.32
2023-11-11T20:14:03.042Z,11.29
2023-11-11T20:16:29.881Z,11.25
2023-11-11T20:18:56.875Z,11.20
2023-11-11T20:21:23.928Z,11.13
2023-11-11T20:23:50.978Z,11.08
2023-11-11T20:26:18.371Z,11.03
2023-11-11T20:28:45.411Z,10.99
2023-11-11T20:31:15.946Z,10.99
2023-11-11T20:33:42.840Z,10.98
2023-11-11T20:36:10.014Z,10.97
2023-11-11T20:38:38.683Z,11.01
2023-11-11T20:41:05.859Z,11.04
2023-11-11T20:43:36.282Z,11.05
2023-11-11T20:46:03.562Z,11.05
2023-11-11T20:48:30.556Z,11.06
2023-11-11T20:50:57.636Z,11.06
2023-11-11T20:53:24.552Z,11.07
2023-11-11T20:55:51.738Z,11.11
2023-11-11T20:58:20.089Z,11.13
2023-11-11T21:00:47.135Z,11.13
2023-11-11T21:03:14.629Z,11.12
2023-11-11T21:05:41.754Z,11.06
2023-11-11T21:08:09.246Z,11.02
2023-11-11T21:10:36.958Z,11.00
2023-11-11T21:13:04.207Z,10.97
2023-11-11T21:15:31.156Z,10.92
2023-11-11T21:17:58.638Z,10.87
2023-11-11T21:20:26.684Z,10.81
2023-11-11T21:22:53.755Z,10.81
2023-11-11T21:25:22.002Z,10.82
2023-11-11T21:27:49.388Z,10.79
2023-11-11T21:30:16.725Z,10.79
2023-11-11T21:32:44.073Z,10.82
2023-11-11T21:35:11.167Z,10.83
2023-11-11T21:37:38.339Z,10.85
2023-11-11T21:40:08.187Z,10.85
2023-11-11T21:42:35.026Z,10.86
2023-11-11T21:45:01.886Z,10.87
2023-11-11T21:47:29.061Z,10.84
2023-11-11T21:49:56.188Z,10.78
2023-11-11T21:52:23.635Z,10.76
2023-11-11T21:54:50.575Z,10.76
2023-11-11T21:57:17.713Z,10.73
2023-11-11T21:59:44.778Z,10.68
2023-11-11T22:02:11.799Z,10.66
2023-11-11T22:04:41.848Z,10.66
2023-11-11T22:07:08.785Z,10.67
2023-11-11T22:09:35.496Z,10.65
2023-11-11T22:12:06.859Z,10.65
2023-11-11T22:14:34.235Z,10.65
2023-11-11T22:17:01.438Z,10.67
2023-11-11T22:19:28.637Z,10.67
2023-11-11T22:21:55.486Z,10.64
2023-11-11T22:24:22.421Z,10.62
2023-11-11T22:26:50.895Z,10.63
2023-11-11T22:29:18.760Z,10.62
2023-11-11T22:31:45.760Z,10.59
2023-11-11T22:34:12.673Z,10.54
2023-11-11T22:36:39.901Z,10.52
2023-11-11T22:39:06.864Z,10.54
2023-11-11T22:41:36.251Z,10.52
2023-11-11T22:44:03.131Z,10.48
2023-11-11T22:46:30.182Z,10.45
2023-11-11T22:48:57.089Z,10.49
2023-11-11T22:51:24.039Z,10.51
2023-11-11T22:53:50.974Z,10.48
2023-11-11T22:56:18.056Z,10.42
2023-11-11T22:58:45.079Z,10.40
2023-11-11T23:01:12.423Z,10.42
2023-11-11T23:03:39.492Z,10.41
2023-11-11T23:06:06.550Z,10.38
2023-11-11T23:08:33.881Z,10.36
2023-11-11T23:11:01.478Z,10.38
2023-11-11T23:13:30.640Z,10.40
2023-11-11T23:15:57.802Z,10.35
2023-11-11T23:18:26.039Z,10.30
2023-11-11T23:21:03.498Z,10.30
2023-11-11T23:23:37.684Z,10.35
2023-11-11T23:26:08.945Z,10.37
2023-11-11T23:28:36.784Z,10.37
2023-11-11T23:31:07.235Z,10.37
2023-11-11T23:33:36.661Z,10.36
2023-11-11T23:36:04.481Z,10.40
2023-11-11T23:38:31.435Z,10.39
2023-11-11T23:40:58.715Z,10.34
2023-11-11T23:43:25.725Z,10.33
2023-11-11T23:45:52.577Z,10.36
2023-11-11T23:48:20.332Z,10.37
2023-11-11T23:50:47.480Z,10.33
2023-11-11T23:53:14.481Z,10.28
2023-11-11T23:55:42.543Z,10.21
2023-11-11T23:58:10.575Z,10.19
